METAR的历史 Teuge International Airport (EHTE)

2022年6月27日

时间 代码 天气 温度 能见度 天花板 METAR/SPECI
4:25 下午
M
59 °F 6¼ mi+ 1.500 ft 270° 270° 14 kt METAR EHDL 271425Z AUTO 27014KT 210V340 9999 -RA BKN015CB SCT039 BKN046 15/13 Q1017 RERA REDZ WHT
3:55 下午
V
64 °F 6¼ mi+ 5.500 ft 280° 280° 9 kt METAR EHDL 271355Z AUTO 28009KT 200V360 9999 -RA FEW016CB SCT035 OVC055 18/14 Q1016 BLU
3:25 下午
V
68 °F 6¼ mi+ 3.900 ft 260° 260° 5 kt METAR EHDL 271325Z AUTO 26005KT 220V300 9999 SCT034 BKN039 OVC055 20/13 Q1016 BLU
2:55 下午
V
68 °F 6¼ mi+ 5.400 ft Var Var 2 kt METAR EHDL 271255Z AUTO VRB02KT 9999 OVC054 20/13 Q1016 BLU
2:25 下午
V
68 °F 6¼ mi+ 6.600 ft Var Var 1 kt METAR EHDL 271225Z AUTO VRB01KT 9999 SCT060 BKN066 BKN072 20/13 Q1016 BLU
1:55 下午
V
68 °F 6¼ mi+ 5.800 ft 230° 230° 4 kt METAR EHDL 271155Z AUTO 23004KT 140V290 9999 BKN058 OVC067 20/12 Q1016 BLU
1:25 下午
V
68 °F 6¼ mi+ 6.000 ft Var Var 2 kt METAR EHDL 271125Z AUTO VRB02KT 9999 BKN060 OVC073 20/10 Q1016 BLU
12:55 下午
V
68 °F 6¼ mi+ 5.800 ft Var Var 2 kt METAR EHDL 271055Z AUTO VRB02KT 9999 OVC058 20/13 Q1016 BLU
12:25 下午
V
68 °F 6¼ mi+ 6.000 ft Var Var 1 kt METAR EHDL 271025Z AUTO VRB01KT 9999 OVC060 20/14 Q1016 BLU
11:55 上午
V
66 °F 6¼ mi+ 5.900 ft Var Var 2 kt METAR EHDL 270955Z AUTO VRB02KT 9999 BKN059 OVC067 19/13 Q1016 BLU
11:25 上午
V
66 °F 6¼ mi+ 11.000 ft Var Var 2 kt METAR EHDL 270925Z AUTO VRB02KT 9999 SCT056 OVC110 19/14 Q1016 BLU
10:55 上午
V
64 °F 6¼ mi+ 8.800 ft Var Var 2 kt METAR EHDL 270855Z AUTO VRB02KT 9999 BKN088 BKN094 OVC130 18/15 Q1016 BLU
10:25 上午
V
64 °F 6¼ mi+ 8.700 ft Var Var 1 kt METAR EHDL 270825Z AUTO VRB01KT 9999 BKN087 OVC130 18/15 Q1015 BLU
9:55 上午
V
63 °F 6¼ mi+ 13.000 ft Var Var 1 kt METAR EHDL 270755Z AUTO VRB01KT 9999 FEW083 OVC130 17/15 Q1015 BLU
9:25 上午
V
63 °F 6¼ mi+ 8.600 ft Var Var 2 kt METAR EHDL 270725Z AUTO VRB02KT 9999 SCT080 OVC086 17/15 Q1015 BLU
8:55 上午
V
63 °F 6¼ mi+ 6.200 ft 270° 270° 3 kt METAR EHDL 270655Z AUTO 27003KT 220V320 9999 BKN062 BKN075 OVC089 17/15 Q1015 BLU
8:25 上午
V
63 °F 6¼ mi+ 14.000 ft Var Var 2 kt METAR EHDL 270625Z AUTO VRB02KT 9999 FEW060 OVC140 17/15 Q1015 BLU
7:55 上午
V
61 °F 6¼ mi+ 8.700 ft 030° 030° 1 kt METAR EHDL 270555Z AUTO 03001KT 9999 BKN087 OVC150 16/14 Q1014 BLU
7:25 上午
V
61 °F 6¼ mi+ 8.900 ft Var Var 2 kt METAR EHDL 270525Z AUTO VRB02KT 9999 OVC089 16/14 Q1014 BLU
6:55 上午
V
59 °F 6¼ mi+ 10.000 ft Var Var 1 kt METAR EHDL 270455Z AUTO VRB01KT 9999 SCT091 OVC100 15/13 Q1014 BLU
6:25 上午
V
59 °F 6¼ mi+ 10.000 ft 300° 300° 2 kt METAR EHDL 270425Z AUTO 30002KT 9999 OVC100 15/13 Q1014 BLU
5:55 上午
V
59 °F 6¼ mi+ 9.200 ft Var Var 1 kt METAR EHDL 270355Z AUTO VRB01KT 9999 OVC092 15/14 Q1014 BLU
5:25 上午
V
59 °F 6¼ mi+ 9.500 ft Var Var 1 kt METAR EHDL 270325Z AUTO VRB01KT 9999 FEW088 OVC095 15/13 Q1014 BLU
4:55 上午
V
59 °F 6¼ mi+ 7.900 ft Var Var 2 kt METAR EHDL 270255Z AUTO VRB02KT 9999 OVC079 15/13 Q1015 BLU
4:25 上午
V
59 °F 6¼ mi+ 7.500 ft Var Var 1 kt METAR EHDL 270225Z AUTO VRB01KT 9999 BKN075 OVC080 15/14 Q1015 BLU
3:55 上午
V
59 °F 6¼ mi+ 7.100 ft Var Var 2 kt METAR EHDL 270155Z AUTO VRB02KT 9999 OVC071 15/13 Q1015 BLU
3:25 上午
V
59 °F 6¼ mi+ 6.700 ft 250° 250° 1 kt METAR EHDL 270125Z AUTO 25001KT 9999 BKN067 OVC073 15/14 Q1016 BLU
2:55 上午
V
59 °F 6¼ mi+ 6.600 ft 210° 210° 2 kt METAR EHDL 270055Z AUTO 21002KT 9999 OVC066 15/14 Q1016 BLU
2:25 上午
V
61 °F 6¼ mi+ 6.400 ft Var Var 2 kt METAR EHDL 270025Z AUTO VRB02KT 9999 OVC064 16/13 Q1015 BLU
1:55 上午
V
59 °F 6¼ mi+ 9.300 ft Var Var 1 kt METAR EHDL 262355Z AUTO VRB01KT 9999 OVC093 15/13 Q1015 BLU
1:25 上午
V
59 °F 6¼ mi+ 9.500 ft 090° 090° 3 kt METAR EHDL 262325Z AUTO 09003KT 020V120 9999 BKN095 OVC120 15/14 Q1015 BLU
12:55 上午
V
59 °F 6¼ mi+ 9.000 ft 070° 070° 3 kt METAR EHDL 262255Z AUTO 07003KT 020V110 9999 -RA FEW082 BKN090 OVC096 15/14 Q1015 RERA REDZ BLU
12:25 上午
V
59 °F 6¼ mi+ 8.700 ft Var Var 2 kt METAR EHDL 262225Z AUTO VRB02KT 9999 BKN087 OVC100 15/13 Q1015 BLU

2022年6月26日

时间 代码 天气 温度 能见度 天花板 METAR/SPECI
11:55 下午
V
59 °F 6¼ mi+ 10.000 ft 010° 010° 2 kt METAR EHDL 262155Z AUTO 01002KT 9999 OVC100 15/14 Q1015 BLU
11:25 下午
V
61 °F 6¼ mi+ 10.000 ft 340° 340° 1 kt METAR EHDL 262125Z AUTO 34001KT 9999 OVC100 16/13 Q1016 BLU
10:55 下午
V
63 °F 6¼ mi+ 11.000 ft 090° 090° 3 kt METAR EHDL 262055Z AUTO 09003KT 050V110 9999 FEW086 SCT092 OVC110 17/13 Q1016 BLU
10:25 下午
V
61 °F 6¼ mi+ 9.900 ft 040° 040° 1 kt METAR EHDL 262025Z AUTO 04001KT 9999 SCT094 OVC099 16/14 Q1016 BLU
9:55 下午
V
63 °F 6¼ mi+ 11.000 ft Var Var 1 kt METAR EHDL 261955Z AUTO VRB01KT 9999 OVC110 17/14 Q1016 BLU
9:25 下午
V
64 °F 6¼ mi+ 10.000 ft 150° 150° 2 kt METAR EHDL 261925Z AUTO 15002KT 9999 OVC100 18/13 Q1016 BLU
8:55 下午
V
64 °F 6¼ mi+ 8.800 ft 170° 170° 2 kt METAR EHDL 261855Z AUTO 17002KT 9999 SCT080 BKN088 OVC093 18/14 Q1015 BLU
8:25 下午
V
66 °F 6¼ mi+ 9.300 ft 250° 250° 2 kt METAR EHDL 261825Z AUTO 25002KT 9999 OVC093 19/13 Q1015 BLU
7:55 下午
V
66 °F 6¼ mi+ 9.800 ft 170° 170° 1 kt METAR EHDL 261755Z AUTO 17001KT 9999 BKN098 OVC100 19/12 Q1015 BLU
7:25 下午
V
66 °F 6¼ mi+ 9.700 ft 160° 160° 3 kt METAR EHDL 261725Z AUTO 16003KT 100V270 9999 OVC097 19/12 Q1015 BLU
6:55 下午
V
66 °F 6¼ mi+ 8.300 ft Var Var 2 kt METAR EHDL 261655Z AUTO VRB02KT 9999 BKN083 OVC098 19/12 Q1016 BLU
6:25 下午
V
66 °F 6¼ mi+ 8.300 ft Var Var 2 kt METAR EHDL 261625Z AUTO VRB02KT 9999 OVC083 19/12 Q1016 BLU
5:55 下午
V
66 °F 6¼ mi+ 7.900 ft 150° 150° 3 kt METAR EHDL 261555Z AUTO 15003KT 080V220 9999 OVC079 19/11 Q1016 BLU
5:25 下午
V
66 °F 6¼ mi+ 8.200 ft 200° 200° 3 kt METAR EHDL 261525Z AUTO 20003KT 160V260 9999 OVC082 19/11 Q1016 BLU
4:55 下午
V
66 °F 6¼ mi+ 8.500 ft 200° 200° 4 kt METAR EHDL 261455Z AUTO 20004KT 130V230 9999 OVC085 19/12 Q1016 BLU
4:25 下午
V
66 °F 6¼ mi+ 8.700 ft 170° 170° 7 kt METAR EHDL 261425Z AUTO 17007KT 110V250 9999 OVC087 19/12 Q1016 BLU
3:55 下午
V
66 °F 6¼ mi+ 8.800 ft 180° 180° 7 kt METAR EHDL 261355Z AUTO 18007KT 080V230 9999 FEW025 BKN088 OVC100 19/13 Q1016 BLU
3:25 下午
V
66 °F 6¼ mi+ 10.000 ft 160° 160° 7 kt METAR EHDL 261325Z AUTO 16007KT 100V220 9999 SCT099 OVC100 19/13 Q1016 BLU
2:55 下午
M
66 °F 6¼ mi+ 2.200 ft 160° 160° 8 kt METAR EHDL 261255Z AUTO 16008KT 100V220 9999 BKN022 BKN026 BKN029 19/14 Q1016 WHT
2:25 下午
V
66 °F 6¼ mi+ 9.100 ft 170° 170° 6 kt METAR EHDL 261225Z AUTO 17006KT 120V260 9999 FEW025 OVC091 19/13 Q1016 BLU
1:55 下午
V
66 °F 6¼ mi+ 6.400 ft 190° 190° 7 kt METAR EHDL 261155Z AUTO 19007KT 130V270 9999 SCT024 BKN064 OVC090 19/13 Q1016 WHT
1:25 下午
V
68 °F 6¼ mi+ 9.400 ft 220° 220° 7 kt METAR EHDL 261125Z AUTO 22007KT 110V280 9999 SCT022 BKN094 OVC100 20/14 Q1016 WHT
12:55 下午
V
66 °F 6¼ mi+ 8.200 ft 200° 200° 7 kt METAR EHDL 261055Z AUTO 20007KT 140V270 9999 FEW020 SCT068 BKN082 19/14 Q1016 BLU
12:25 下午
M
66 °F 6¼ mi+ 2.000 ft 210° 210° 6 kt METAR EHDL 261025Z AUTO 21006KT 130V300 9999 BKN020 BKN025 BKN028 19/14 Q1016 WHT
11:55 上午
V
66 °F 6¼ mi+ 12.000 ft 210° 210° 5 kt METAR EHDL 260955Z AUTO 21005KT 120V280 9999 FEW022 OVC120 19/13 Q1016 BLU
11:25 上午
V
66 °F 6¼ mi+ 13.000 ft 220° 220° 7 kt METAR EHDL 260925Z AUTO 22007KT 120V260 9999 FEW022 OVC130 19/13 Q1016 BLU
10:55 上午
M
66 °F 6¼ mi+ 2.500 ft 200° 200° 6 kt METAR EHDL 260855Z AUTO 20006KT 140V300 9999 SCT021 BKN025 OVC150 19/13 Q1015 WHT
10:25 上午
V
66 °F 6¼ mi+ 15.000 ft 230° 230° 8 kt METAR EHDL 260825Z AUTO 23008KT 140V280 9999 FEW024 BKN150 OVC200 19/13 Q1015 BLU
9:55 上午
M
66 °F 6¼ mi+ 2.400 ft Var Var 8 kt METAR EHDL 260755Z AUTO VRB08KT 9999 SCT018 BKN024 OVC210 19/14 Q1015 WHT
9:25 上午
V
63 °F 6¼ mi+ 18.000 ft 210° 210° 6 kt METAR EHDL 260725Z AUTO 21006KT 160V300 9999 OVC180 17/13 Q1014 BLU
8:55 上午
V
63 °F 6¼ mi+ - 220° 220° 8 kt METAR EHDL 260655Z AUTO 22008KT 150V300 9999 SCT210 17/14 Q1014 BLU
8:25 上午
M
61 °F 6¼ mi+ 1.000 ft 230° 230° 6 kt METAR EHDL 260625Z AUTO 23006KT 140V270 9999 SCT008 BKN010 16/14 Q1014 GRN
7:55 上午
I
61 °F 5⅝ mi 900 ft 210° 210° 6 kt METAR EHDL 260555Z AUTO 21006KT 160V270 9000 BR FEW007 BKN009 BKN011 16/15 Q1014 GRN
7:25 上午
M
61 °F 4⅜ mi 22.000 ft 220° 220° 6 kt METAR EHDL 260525Z AUTO 22006KT 150V270 7000 BR OVC220 16/15 Q1014 WHT
6:55 上午
V
59 °F 6¼ mi+ 22.000 ft 240° 240° 6 kt METAR EHDL 260455Z AUTO 24006KT 120V280 9999 BKN220 15/14 Q1013 BLU
6:25 上午
M
61 °F 5 mi 2.800 ft 220° 220° 6 kt METAR EHDL 260425Z AUTO 22006KT 160V280 8000 BR FEW012 BKN028 BKN053 16/15 Q1013 BLU
5:55 上午
V
61 °F 6¼ mi+ 4.700 ft 230° 230° 6 kt METAR EHDL 260355Z AUTO 23006KT 150V270 9999 SCT028 OVC047 16/15 Q1013 BLU
5:25 上午
M
61 °F 5 mi 1.000 ft 220° 220° 5 kt METAR EHDL 260325Z AUTO 22005KT 180V270 8000 BR FEW007 SCT009 BKN010 16/16 Q1012 GRN
4:55 上午
M
61 °F 6¼ mi+ 1.000 ft 240° 240° 4 kt METAR EHDL 260255Z AUTO 24004KT 190V280 9999 FEW008 BKN010 OVC012 16/15 Q1012 GRN
4:25 上午
M
61 °F 5 mi 2.500 ft 230° 230° 3 kt METAR EHDL 260225Z AUTO 23003KT 190V310 8000 BR FEW021 BKN025 OVC055 16/16 Q1012 BLU
3:55 上午
I
61 °F 2¼ mi 4.200 ft 210° 210° 3 kt METAR EHDL 260155Z AUTO 21003KT 140V270 3700 -RA FEW015CB BKN042 OVC046 16/16 Q1012 REGR RERA REDZ GRN
3:25 上午
I
61 °F 2¾ mi 3.700 ft Var Var 2 kt METAR EHDL 260125Z AUTO VRB02KT 4500 -RA FEW015CB BKN037 OVC041 16/16 Q1012 GRN
2:55 上午
I
61 °F 1⅞ mi 5.200 ft Var Var 1 kt METAR EHDL 260055Z AUTO VRB01KT 3100 -RA FEW015CB BKN052 OVC057 16/16 Q1012 REUPRA YLO
2:25 上午
M
61 °F 3⅛ mi 6.900 ft 300° 300° 2 kt METAR EHDL 260025Z AUTO 30002KT 5000 DZ SCT062 BKN069 BKN079 16/16 Q1012 WHT
1:55 上午
M
61 °F 4⅜ mi 9.100 ft Var Var 2 kt METAR EHDL 252355Z AUTO VRB02KT 7000 BR FEW072 BKN091 BKN098 16/16 Q1012 WHT
1:25 上午
V
61 °F 5 mi 3.100 ft 250° 250° 7 kt METAR EHDL 252325Z AUTO 25007KT 170V290 8000 BR FEW006 OVC031 16/16 Q1012 BLU
12:55 上午
V
61 °F 5⅝ mi 9.900 ft 250° 250° 5 kt METAR EHDL 252255Z AUTO 25005KT 190V310 9000 BR FEW003 BKN099 OVC160 16/15 Q1011 BLU
12:25 上午
V
61 °F 6¼ mi+ 9.700 ft Var 000° 0 kt METAR EHDL 252225Z AUTO 00000KT 9999 FEW090 OVC097 16/16 Q1011 BLU

2022年6月25日

时间 代码 天气 温度 能见度 天花板 METAR/SPECI
11:55 下午
V
63 °F 6¼ mi+ 10.000 ft Var 000° 0 kt METAR EHDL 252155Z AUTO 00000KT 9999 FEW074 OVC100 17/15 Q1011 BLU
11:25 下午
V
63 °F 6¼ mi+ 10.000 ft Var Var 1 kt METAR EHDL 252125Z AUTO VRB01KT 9999 SCT077 OVC100 17/15 Q1011 BLU
10:55 下午
V
63 °F 6¼ mi+ 8.300 ft 350° 350° 3 kt METAR EHDL 252055Z AUTO 35003KT 310V040 9999 BKN083 OVC093 17/15 Q1011 BLU
10:25 下午
V
63 °F 6¼ mi+ 9.700 ft 340° 340° 3 kt METAR EHDL 252025Z AUTO 34003KT 310V030 9999 FEW084 BKN097 OVC100 17/15 Q1012 BLU
9:55 下午
V
63 °F 6¼ mi+ 8.700 ft 300° 300° 6 kt METAR EHDL 251955Z AUTO 30006KT 250V020 9999 OVC087 17/15 Q1012 BLU
9:25 下午
I
64 °F 6¼ mi+ 800 ft 290° 290° 7 kt METAR EHDL 251925Z AUTO 29007KT 240V360 9999 SCT007 BKN008 BKN041 18/16 Q1011 REDZ GRN
8:55 下午
V
68 °F 6¼ mi+ 8.300 ft 270° 270° 10 kt METAR EHDL 251855Z AUTO 27010KT 200V330 9999 FEW074 BKN083 OVC088 20/17 Q1011 BLU
8:25 下午
V
72 °F 6¼ mi+ 5.200 ft 230° 230° 5 kt METAR EHDL 251825Z AUTO 23005KT 140V290 9999 BKN052 BKN064 OVC070 22/15 Q1011 BLU
7:55 下午
V
73 °F 6¼ mi+ 10.000 ft 170° 170° 6 kt METAR EHDL 251755Z AUTO 17006KT 110V220 9999 FEW070 SCT077 OVC100 23/15 Q1011 BLU
7:25 下午
V
73 °F 6¼ mi+ 10.000 ft Var Var 6 kt METAR EHDL 251725Z AUTO VRB06KT 9999 SCT076 OVC100 23/14 Q1010 BLU
6:55 下午
V
73 °F 6¼ mi+ 8.000 ft Var Var 1 kt METAR EHDL 251655Z AUTO VRB01KT 9999 BKN080 OVC100 23/16 Q1010 BLU
6:25 下午
V
72 °F 6¼ mi+ 8.300 ft Var Var 2 kt METAR EHDL 251625Z AUTO VRB02KT 9999 FEW038 BKN083 OVC089 22/15 Q1010 BLU
5:55 下午
V
73 °F 6¼ mi+ 6.300 ft Var Var 2 kt METAR EHDL 251555Z AUTO VRB02KT 9999 DZ SCT035 SCT051 BKN063 23/15 Q1011 BLU
5:25 下午
V
73 °F 6¼ mi+ 7.600 ft 190° 190° 4 kt METAR EHDL 251525Z AUTO 19004KT 090V260 9999 FEW048 BKN076 OVC083 23/15 Q1011 BLU
4:55 下午
V
73 °F 6¼ mi+ 8.200 ft 160° 160° 6 kt METAR EHDL 251455Z AUTO 16006KT 090V230 9999 FEW039 BKN082 OVC089 23/15 Q1011 BLU
较旧的数据

下载我们的应用程序

在您的手机和平板电脑上轻松访问所有航空天气。
有许多网站上没有的功能,如离线支持和个人机场列表。

Studio Eveline

Benalmádena
España

我们和第三方通过cookies跟踪您在我们网站上的上网行为。如果您继续,我们认为您同意我们的cookie政策。 了解更多